createdAt,value
2018-07-02T00:02:24.519Z,97002.53
2018-07-02T00:04:51.672Z,96998.64
2018-07-02T00:07:22.765Z,96996.58
2018-07-02T00:09:50.376Z,96997.44
2018-07-02T00:12:18.481Z,96990.83
2018-07-02T00:14:46.740Z,96994.42
2018-07-02T00:17:13.931Z,96985.83
2018-07-02T00:19:41.133Z,96987.88
2018-07-02T00:22:08.467Z,96986.55
2018-07-02T00:24:35.616Z,96986.14
2018-07-02T00:27:02.741Z,96992.18
2018-07-02T00:29:29.948Z,96986.94
2018-07-02T00:31:57.066Z,96983.52
2018-07-02T00:34:24.329Z,96985.04
2018-07-02T00:36:51.555Z,96979.29
2018-07-02T00:39:18.755Z,96981.42
2018-07-02T00:41:45.924Z,96979.81
2018-07-02T00:44:13.300Z,96981.69
2018-07-02T00:46:40.513Z,96984.35
2018-07-02T00:49:08.035Z,96980.75
2018-07-02T00:51:35.199Z,96975.67
2018-07-02T00:54:02.538Z,96982.07
2018-07-02T00:56:29.647Z,96978.64
2018-07-02T00:58:56.797Z,96976.36
2018-07-02T01:01:27.760Z,96976.11
2018-07-02T01:03:56.021Z,96964.91
2018-07-02T01:06:23.213Z,96965.63
2018-07-02T01:08:50.407Z,96948.04
2018-07-02T01:11:17.538Z,96961.88
2018-07-02T01:13:44.687Z,96962.28
2018-07-02T01:16:11.817Z,96956.53
2018-07-02T01:18:38.913Z,96974.34
2018-07-02T01:21:06.071Z,96964.20
2018-07-02T01:23:33.336Z,96966.58
2018-07-02T01:26:00.478Z,96963.12
2018-07-02T01:28:27.696Z,96964.86
2018-07-02T01:30:54.940Z,96965.01
2018-07-02T01:33:22.061Z,96964.12
2018-07-02T01:35:49.192Z,96963.69
2018-07-02T01:38:16.355Z,96970.81
2018-07-02T01:40:43.578Z,96966.72
2018-07-02T01:43:10.791Z,96969.75
2018-07-02T01:45:37.991Z,96971.28
2018-07-02T01:48:05.212Z,96967.86
2018-07-02T01:50:32.372Z,96970.83
2018-07-02T01:52:59.548Z,96972.95
2018-07-02T01:55:26.805Z,96975.42
2018-07-02T01:57:53.959Z,96973.02
2018-07-02T02:00:21.124Z,96977.15
2018-07-02T02:02:48.292Z,96971.46
2018-07-02T02:05:15.579Z,96970.38
2018-07-02T02:07:42.664Z,96957.69
2018-07-02T02:10:09.930Z,96959.23
2018-07-02T02:12:37.084Z,96954.77
2018-07-02T02:15:05.096Z,96959.31
2018-07-02T02:17:32.225Z,96949.17
2018-07-02T02:19:59.352Z,96951.89
2018-07-02T02:22:26.532Z,96952.47
2018-07-02T02:24:53.720Z,96952.47
2018-07-02T02:27:20.938Z,96954.02
2018-07-02T02:29:48.095Z,96947.00
2018-07-02T02:32:15.365Z,96955.94
2018-07-02T02:34:42.478Z,96957.09
2018-07-02T02:37:09.659Z,96949.66
2018-07-02T02:39:36.807Z,96952.31
2018-07-02T02:42:04.094Z,96946.05
2018-07-02T02:44:31.299Z,96945.66
2018-07-02T02:46:58.461Z,96944.87
2018-07-02T02:49:25.668Z,96953.42
2018-07-02T02:51:52.824Z,96954.81
2018-07-02T02:54:19.965Z,96958.02
2018-07-02T02:56:47.128Z,96961.09
2018-07-02T02:59:14.256Z,96953.07
2018-07-02T03:01:41.528Z,96955.21
2018-07-02T03:04:08.665Z,96961.48
2018-07-02T03:06:35.843Z,96959.64
2018-07-02T03:09:04.853Z,96955.50
2018-07-02T03:11:31.928Z,96953.80
2018-07-02T03:13:59.062Z,96953.33
2018-07-02T03:16:26.261Z,96951.75
2018-07-02T03:18:53.478Z,96953.66
2018-07-02T03:21:20.691Z,96963.05
2018-07-02T03:23:47.848Z,96962.41
2018-07-02T03:26:14.996Z,96969.49
2018-07-02T03:28:42.180Z,96972.98
2018-07-02T03:31:09.333Z,96972.11
2018-07-02T03:33:36.454Z,96969.03
2018-07-02T03:36:03.644Z,96971.87
2018-07-02T03:38:31.148Z,96970.86
2018-07-02T03:40:58.376Z,96966.65
2018-07-02T03:43:25.524Z,96968.59
2018-07-02T03:45:52.703Z,96975.09
2018-07-02T03:48:19.852Z,96973.16
2018-07-02T03:50:47.027Z,96966.59
2018-07-02T03:53:14.208Z,96965.20
2018-07-02T03:55:41.385Z,96966.46
2018-07-02T03:58:08.523Z,96963.89
2018-07-02T04:00:35.802Z,96961.45
2018-07-02T04:03:02.909Z,96962.91
2018-07-02T04:05:30.092Z,96955.09
2018-07-02T04:07:57.235Z,96949.00
2018-07-02T04:10:24.418Z,96954.66
2018-07-02T04:12:51.551Z,96948.20
2018-07-02T04:15:18.708Z,96954.30
2018-07-02T04:17:45.908Z,96953.14
2018-07-02T04:20:13.275Z,96951.38
2018-07-02T04:22:40.455Z,96942.05
2018-07-02T04:25:07.589Z,96941.17
2018-07-02T04:27:34.713Z,96940.65
2018-07-02T04:30:01.901Z,96934.03
2018-07-02T04:32:29.028Z,96940.02
2018-07-02T04:34:56.220Z,96944.85
2018-07-02T04:37:23.411Z,96938.27
2018-07-02T04:39:50.565Z,96943.88
2018-07-02T04:42:17.699Z,96941.34
2018-07-02T04:44:44.872Z,96941.50
2018-07-02T04:47:12.038Z,96940.72
2018-07-02T04:49:39.206Z,96942.41
2018-07-02T04:52:06.410Z,96944.70
2018-07-02T04:54:33.667Z,96942.14
2018-07-02T04:57:00.905Z,96935.39
2018-07-02T04:59:28.076Z,96948.80
2018-07-02T05:01:55.312Z,96948.84
2018-07-02T05:04:22.548Z,96951.38
2018-07-02T05:06:49.667Z,96943.73
2018-07-02T05:09:17.200Z,96949.53
2018-07-02T05:11:44.317Z,96945.80
2018-07-02T05:14:11.442Z,96938.32
2018-07-02T05:16:38.584Z,96943.81
2018-07-02T05:32:10.296Z,96951.63
2018-07-02T05:34:37.466Z,96949.25
2018-07-02T05:37:04.610Z,96951.64
2018-07-02T05:39:31.777Z,96950.67
2018-07-02T05:41:58.864Z,96951.94
2018-07-02T05:44:26.240Z,96955.92
2018-07-02T05:46:53.365Z,96953.73
2018-07-02T05:49:21.093Z,96948.38
2018-07-02T05:51:48.713Z,96950.27
2018-07-02T05:54:15.952Z,96944.06
2018-07-02T05:56:44.193Z,96955.96
2018-07-02T05:59:13.346Z,96947.92
2018-07-02T06:01:40.455Z,96947.98
2018-07-02T06:04:07.565Z,96948.41
2018-07-02T06:06:34.644Z,96949.99
2018-07-02T06:09:01.745Z,96940.09
2018-07-02T06:11:28.891Z,96936.52
2018-07-02T06:13:55.992Z,96939.75
2018-07-02T06:16:23.160Z,96945.63
2018-07-02T06:18:50.279Z,96938.17
2018-07-02T06:21:17.392Z,96932.17
2018-07-02T06:23:44.514Z,96937.37
2018-07-02T06:26:12.528Z,96932.09
2018-07-02T06:28:39.732Z,96936.55
2018-07-02T06:31:06.868Z,96936.92
2018-07-02T06:33:34.040Z,96939.67
2018-07-02T06:36:01.156Z,96947.05
2018-07-02T06:38:28.289Z,96954.31
2018-07-02T06:40:55.499Z,96953.63
2018-07-02T06:43:22.711Z,96942.84
2018-07-02T06:45:49.975Z,96936.61
2018-07-02T06:48:17.102Z,96937.95
2018-07-02T06:50:44.232Z,96941.90
2018-07-02T06:53:11.402Z,96946.50
2018-07-02T06:55:38.565Z,96935.52
2018-07-02T06:58:05.701Z,96945.06
2018-07-02T07:00:32.863Z,96941.65
2018-07-02T07:02:59.984Z,96936.42
2018-07-02T07:05:27.096Z,96942.02
2018-07-02T07:07:54.261Z,96937.34
2018-07-02T07:10:21.460Z,96937.83
2018-07-02T07:12:48.600Z,96937.63
2018-07-02T07:15:15.710Z,96944.25
2018-07-02T07:17:42.864Z,96945.53
2018-07-02T07:20:10.021Z,96935.56
2018-07-02T07:22:37.120Z,96937.86
2018-07-02T07:25:04.381Z,96934.23
2018-07-02T07:27:31.533Z,96936.09
2018-07-02T07:29:58.689Z,96931.20
2018-07-02T07:32:25.795Z,96924.25
2018-07-02T07:34:52.976Z,96928.10
2018-07-02T07:37:20.097Z,96925.74
2018-07-02T07:39:47.298Z,96916.50
2018-07-02T07:42:14.435Z,96918.55
2018-07-02T07:44:41.557Z,96919.19
2018-07-02T07:47:08.674Z,96931.08
2018-07-02T07:49:35.811Z,96924.55
2018-07-02T07:52:02.938Z,96927.27
2018-07-02T07:54:30.171Z,96932.16
2018-07-02T07:56:57.316Z,96926.06
2018-07-02T07:59:24.481Z,96933.45
2018-07-02T08:01:51.605Z,96935.69
2018-07-02T08:04:18.685Z,96928.50
2018-07-02T08:06:45.845Z,96927.39
2018-07-02T08:09:13.014Z,96922.22
2018-07-02T08:11:40.629Z,96924.16
2018-07-02T08:14:07.780Z,96925.93
2018-07-02T08:16:34.972Z,96923.61
2018-07-02T08:19:02.172Z,96924.81
2018-07-02T08:21:29.231Z,96926.88
2018-07-02T08:23:56.360Z,96931.54
2018-07-02T08:26:23.531Z,96926.48
2018-07-02T08:28:50.730Z,96922.50
2018-07-02T08:31:17.873Z,96923.48
2018-07-02T08:33:45.040Z,96914.06
2018-07-02T08:36:12.446Z,96915.03
2018-07-02T08:38:39.591Z,96919.63
2018-07-02T08:41:06.756Z,96920.23
2018-07-02T08:43:33.892Z,96923.44
2018-07-02T08:46:00.996Z,96921.53
2018-07-02T08:48:28.136Z,96930.42
2018-07-02T08:50:55.231Z,96928.70
2018-07-02T08:53:22.444Z,96920.22
2018-07-02T08:55:49.656Z,96921.17
2018-07-02T08:58:16.765Z,96913.45
2018-07-02T09:00:43.885Z,96911.92
2018-07-02T09:03:11.023Z,96914.21
2018-07-02T09:05:38.152Z,96917.70
2018-07-02T09:08:05.393Z,96913.69
2018-07-02T09:10:32.601Z,96911.92
2018-07-02T09:12:59.764Z,96897.50
2018-07-02T09:15:26.914Z,96910.00
2018-07-02T09:17:54.040Z,96904.45
2018-07-02T09:20:21.189Z,96906.37
2018-07-02T09:22:48.382Z,96905.02
2018-07-02T09:25:15.550Z,96905.73
2018-07-02T09:27:42.656Z,96901.34
2018-07-02T09:30:09.866Z,96912.98
2018-07-02T09:32:37.081Z,96896.16
2018-07-02T09:35:04.361Z,96899.42
2018-07-02T09:37:31.503Z,96902.04
2018-07-02T09:39:58.670Z,96902.12
2018-07-02T09:42:25.808Z,96897.90
2018-07-02T09:44:52.988Z,96900.98
2018-07-02T09:47:20.105Z,96894.17
2018-07-02T09:49:47.262Z,96894.20
2018-07-02T09:52:14.422Z,96894.03
2018-07-02T09:54:41.684Z,96889.63
2018-07-02T09:57:08.769Z,96890.22
2018-07-02T09:59:35.940Z,96883.86
2018-07-02T10:02:03.068Z,96882.85
2018-07-02T10:04:30.289Z,96886.08
2018-07-02T10:06:57.399Z,96888.06
2018-07-02T10:09:24.543Z,96892.05
2018-07-02T10:11:51.734Z,96887.91
2018-07-02T10:14:18.903Z,96881.40
2018-07-02T10:16:46.115Z,96888.20
2018-07-02T10:19:13.272Z,96884.16
2018-07-02T10:21:40.436Z,96870.45
2018-07-02T10:24:07.607Z,96871.66
2018-07-02T10:26:34.794Z,96874.55
2018-07-02T10:29:01.999Z,96873.55
2018-07-02T10:31:29.202Z,96870.69
2018-07-02T10:33:56.315Z,96879.98
2018-07-02T10:36:23.435Z,96880.58
2018-07-02T10:38:50.596Z,96874.34
2018-07-02T10:41:17.756Z,96858.60
2018-07-02T10:43:44.873Z,96862.53
2018-07-02T10:46:12.032Z,96853.63
2018-07-02T10:48:39.153Z,96859.45
2018-07-02T10:51:06.313Z,96857.22
2018-07-02T10:53:33.532Z,96853.12
2018-07-02T10:56:00.704Z,96847.03
2018-07-02T10:58:27.831Z,96845.68
2018-07-02T11:00:55.002Z,96845.25
2018-07-02T11:03:22.120Z,96843.81
2018-07-02T11:05:49.272Z,96838.44
2018-07-02T11:08:16.445Z,96843.28
2018-07-02T11:10:43.606Z,96833.39
2018-07-02T11:13:11.588Z,96834.07
2018-07-02T11:15:39.753Z,96838.05
2018-07-02T11:18:07.147Z,96832.19
2018-07-02T11:20:34.590Z,96832.28
2018-07-02T11:23:01.733Z,96831.53
2018-07-02T11:25:28.902Z,96832.47
2018-07-02T11:27:56.086Z,96824.75
2018-07-02T11:30:23.863Z,96823.17
2018-07-02T11:32:51.021Z,96825.19
2018-07-02T11:35:18.337Z,96825.93
2018-07-02T11:37:45.840Z,96822.31
2018-07-02T11:40:13.332Z,96822.47
2018-07-02T11:42:40.501Z,96827.44
2018-07-02T11:45:07.783Z,96816.86
2018-07-02T11:47:35.319Z,96816.83
2018-07-02T11:50:02.642Z,96809.86
2018-07-02T11:52:29.973Z,96814.34
2018-07-02T11:54:57.361Z,96812.21
2018-07-02T11:57:24.945Z,96814.12
2018-07-02T11:59:52.184Z,96807.74
2018-07-02T12:02:19.434Z,96808.35
2018-07-02T12:04:46.914Z,96818.42
2018-07-02T12:07:14.098Z,96814.84
2018-07-02T12:09:41.263Z,96809.64
2018-07-02T12:12:08.420Z,96816.11
2018-07-02T12:14:35.560Z,96819.75
2018-07-02T12:17:02.822Z,96818.39
2018-07-02T12:19:30.023Z,96811.19
2018-07-02T12:21:57.165Z,96805.21
2018-07-02T12:24:24.273Z,96807.36
2018-07-02T12:26:51.980Z,96806.52
2018-07-02T12:29:19.219Z,96805.17
2018-07-02T12:31:46.368Z,96800.23
2018-07-02T12:34:13.562Z,96799.73
2018-07-02T12:36:40.833Z,96803.48
2018-07-02T12:39:09.849Z,96796.56
2018-07-02T12:41:37.136Z,96795.91
2018-07-02T12:44:04.301Z,96797.80
2018-07-02T12:46:31.488Z,96797.17
2018-07-02T12:48:58.716Z,96803.16
2018-07-02T12:51:25.871Z,96801.11
2018-07-02T12:53:53.092Z,96792.37
2018-07-02T12:56:20.295Z,96801.73
2018-07-02T12:58:47.552Z,96797.64
2018-07-02T13:01:14.675Z,96796.67
2018-07-02T13:03:41.818Z,96800.02
2018-07-02T13:06:09.105Z,96799.53
2018-07-02T13:08:36.236Z,96796.79
2018-07-02T13:11:03.437Z,96790.20
2018-07-02T13:13:30.619Z,96791.02
2018-07-02T13:15:57.688Z,96783.58
2018-07-02T13:18:24.866Z,96789.09
2018-07-02T13:20:52.101Z,96784.38
2018-07-02T13:23:19.214Z,96787.33
2018-07-02T13:25:46.426Z,96785.51
2018-07-02T13:28:13.568Z,96765.05
2018-07-02T13:30:40.733Z,96763.64
2018-07-02T13:33:08.176Z,96776.25
2018-07-02T13:35:35.385Z,96774.47
2018-07-02T13:38:02.556Z,96767.80
2018-07-02T13:40:29.849Z,96766.09
2018-07-02T13:42:57.021Z,96770.68
2018-07-02T13:45:24.210Z,96766.01
2018-07-02T13:47:51.391Z,96771.63
2018-07-02T13:50:18.551Z,96766.81
2018-07-02T13:52:46.097Z,96761.01
2018-07-02T13:55:14.153Z,96761.13
2018-07-02T13:57:41.271Z,96763.28
2018-07-02T14:00:08.504Z,96764.32
2018-07-02T14:02:35.678Z,96756.51
2018-07-02T14:05:02.912Z,96761.23
2018-07-02T14:07:30.154Z,96757.08
2018-07-02T14:09:57.375Z,96762.23
2018-07-02T14:12:24.520Z,96760.00
2018-07-02T14:14:51.809Z,96768.98
2018-07-02T14:17:18.943Z,96764.04
2018-07-02T14:19:46.072Z,96755.97
2018-07-02T14:22:13.260Z,96756.61
2018-07-02T14:24:40.433Z,96761.98
2018-07-02T14:27:07.852Z,96759.75
2018-07-02T14:29:34.947Z,96764.27
2018-07-02T14:32:02.273Z,96763.16
2018-07-02T14:34:29.404Z,96767.64
2018-07-02T14:36:56.745Z,96761.01
2018-07-02T14:39:23.920Z,96763.91
2018-07-02T14:41:51.175Z,96758.53
2018-07-02T14:44:18.295Z,96764.00
2018-07-02T14:46:45.450Z,96757.16
2018-07-02T14:49:12.559Z,96750.88
2018-07-02T14:51:39.985Z,96754.13
2018-07-02T14:54:07.178Z,96758.14
2018-07-02T14:56:34.367Z,96756.92
2018-07-02T14:59:01.612Z,96748.39
2018-07-02T15:01:28.765Z,96751.57
2018-07-02T15:03:55.905Z,96747.80
2018-07-02T15:06:23.061Z,96746.98
2018-07-02T15:08:50.501Z,96747.85
2018-07-02T15:11:17.684Z,96735.39
2018-07-02T15:13:44.831Z,96739.63
2018-07-02T15:16:12.079Z,96742.55
2018-07-02T15:18:39.241Z,96738.42
2018-07-02T15:21:06.691Z,96742.55
2018-07-02T15:23:33.840Z,96741.41
2018-07-02T15:26:01.070Z,96731.27
2018-07-02T15:28:28.623Z,96729.83
2018-07-02T15:30:55.883Z,96732.98
2018-07-02T15:33:23.042Z,96734.64
2018-07-02T15:35:50.213Z,96733.45
2018-07-02T15:38:17.367Z,96730.16
2018-07-02T15:40:44.573Z,96724.78
2018-07-02T15:43:11.790Z,96723.66
2018-07-02T15:45:39.018Z,96726.38
2018-07-02T15:48:06.220Z,96724.20
2018-07-02T15:50:33.428Z,96720.28
2018-07-02T15:53:00.598Z,96725.51
2018-07-02T15:55:27.793Z,96728.41
2018-07-02T15:57:54.994Z,96724.83
2018-07-02T16:00:22.325Z,96726.75
2018-07-02T16:02:49.445Z,96722.25
2018-07-02T16:05:18.965Z,96718.84
2018-07-02T16:07:46.091Z,96715.98
2018-07-02T16:10:13.262Z,96713.73
2018-07-02T16:12:40.856Z,96712.92
2018-07-02T16:15:08.059Z,96711.48
2018-07-02T16:17:35.218Z,96713.63
2018-07-02T16:20:02.948Z,96721.91
2018-07-02T16:22:30.148Z,96717.94
2018-07-02T16:24:57.341Z,96709.02
2018-07-02T16:27:24.581Z,96711.36
2018-07-02T16:29:51.812Z,96704.50
2018-07-02T16:32:18.997Z,96710.33
2018-07-02T16:34:46.186Z,96714.95
2018-07-02T16:37:14.425Z,96713.27
2018-07-02T16:39:41.581Z,96704.45
2018-07-02T16:42:08.829Z,96706.83
2018-07-02T16:44:35.983Z,96708.34
2018-07-02T16:47:03.216Z,96710.33
2018-07-02T16:49:30.414Z,96709.47
2018-07-02T16:51:57.650Z,96708.16
2018-07-02T16:54:24.863Z,96707.50
2018-07-02T16:56:52.121Z,96705.16
2018-07-02T16:59:19.285Z,96707.06
2018-07-02T17:01:46.479Z,96714.01
2018-07-02T17:04:13.635Z,96710.03
2018-07-02T17:06:40.785Z,96705.91
2018-07-02T17:09:09.670Z,96709.45
2018-07-02T17:11:37.355Z,96708.44
2018-07-02T17:14:04.571Z,96716.23
2018-07-02T17:16:31.749Z,96711.14
2018-07-02T17:18:58.946Z,96716.04
2018-07-02T17:21:26.112Z,96710.95
2018-07-02T17:23:53.288Z,96715.48
2018-07-02T17:26:20.481Z,96716.39
2018-07-02T17:28:47.616Z,96717.00
2018-07-02T17:31:14.828Z,96714.11
2018-07-02T17:33:41.960Z,96719.59
2018-07-02T17:36:09.144Z,96717.66
2018-07-02T17:38:36.279Z,96720.39
2018-07-02T17:41:03.603Z,96718.88
2018-07-02T17:43:30.810Z,96724.35
2018-07-02T17:45:58.033Z,96729.77
2018-07-02T17:48:31.955Z,96723.36
2018-07-02T17:50:59.187Z,96734.70
2018-07-02T17:53:26.382Z,96727.59
2018-07-02T17:55:53.592Z,96732.38
2018-07-02T17:58:20.749Z,96733.70
2018-07-02T18:00:47.890Z,96730.97
2018-07-02T18:03:15.098Z,96735.44
2018-07-02T18:05:42.300Z,96738.91
2018-07-02T18:08:09.465Z,96739.34
2018-07-02T18:10:36.727Z,96742.05
2018-07-02T18:13:03.876Z,96740.29
2018-07-02T18:15:31.080Z,96738.23
2018-07-02T18:17:58.257Z,96737.89
2018-07-02T18:20:25.409Z,96748.97
2018-07-02T18:22:52.612Z,96742.47
2018-07-02T18:25:19.733Z,96745.80
2018-07-02T18:27:46.992Z,96745.27
2018-07-02T18:30:14.193Z,96746.30
2018-07-02T18:32:41.395Z,96753.58
2018-07-02T18:35:08.582Z,96754.16
2018-07-02T18:37:35.752Z,96759.25
2018-07-02T18:40:03.680Z,96767.02
2018-07-02T18:42:30.929Z,96761.30
2018-07-02T18:44:58.068Z,96765.38
2018-07-02T18:47:25.231Z,96769.80
2018-07-02T18:49:52.354Z,96772.58
2018-07-02T18:52:19.560Z,96773.58
2018-07-02T18:54:46.720Z,96775.59
2018-07-02T18:57:13.929Z,96776.22
2018-07-02T18:59:41.100Z,96773.58
2018-07-02T19:02:08.330Z,96782.20
2018-07-02T19:04:35.558Z,96781.23
2018-07-02T19:07:02.779Z,96790.17
2018-07-02T19:09:29.948Z,96791.42
2018-07-02T19:11:57.217Z,96786.88
2018-07-02T19:14:24.407Z,96796.70
2018-07-02T19:16:51.656Z,96798.51
2018-07-02T19:19:18.840Z,96801.21
2018-07-02T19:21:45.969Z,96808.52
2018-07-02T19:24:13.171Z,96807.75
2018-07-02T19:26:40.368Z,96806.60
2018-07-02T19:29:07.560Z,96804.28
2018-07-02T19:31:34.739Z,96806.02
2018-07-02T19:34:01.912Z,96811.36
2018-07-02T19:36:29.091Z,96816.52
2018-07-02T19:38:56.237Z,96824.20
2018-07-02T19:41:23.506Z,96824.77
2018-07-02T19:43:51.924Z,96829.31
2018-07-02T19:46:19.168Z,96827.19
2018-07-02T19:48:47.556Z,96830.84
2018-07-02T19:51:14.778Z,96830.30
2018-07-02T19:53:41.986Z,96837.17
2018-07-02T19:56:09.224Z,96839.86
2018-07-02T19:58:36.385Z,96852.14
2018-07-02T20:01:03.690Z,96850.84
2018-07-02T20:03:30.859Z,96853.41
2018-07-02T20:05:58.033Z,96860.04
2018-07-02T20:08:25.209Z,96858.29
2018-07-02T20:10:52.369Z,96862.52
2018-07-02T20:13:19.610Z,96858.25
2018-07-02T20:15:47.007Z,96857.11
2018-07-02T20:18:14.139Z,96862.53
2018-07-02T20:20:41.269Z,96868.09
2018-07-02T20:23:08.436Z,96861.70
2018-07-02T20:25:35.578Z,96869.37
2018-07-02T20:28:02.876Z,96872.37
2018-07-02T20:30:30.249Z,96867.52
2018-07-02T20:32:57.413Z,96874.45
2018-07-02T20:35:24.514Z,96879.89
2018-07-02T20:37:51.715Z,96881.48
2018-07-02T20:40:18.930Z,96879.89
2018-07-02T20:42:46.111Z,96895.98
2018-07-02T20:45:13.276Z,96890.06
2018-07-02T20:47:40.501Z,96895.70
2018-07-02T20:50:08.039Z,96899.53
2018-07-02T20:52:35.217Z,96895.39
2018-07-02T20:55:02.808Z,96908.38
2018-07-02T20:57:30.000Z,96900.38
2018-07-02T20:59:57.149Z,96910.31
2018-07-02T21:02:24.359Z,96903.54
2018-07-02T21:04:51.486Z,96905.70
2018-07-02T21:07:18.635Z,96901.56
2018-07-02T21:09:45.940Z,96905.81
2018-07-02T21:12:13.080Z,96905.11
2018-07-02T21:14:40.213Z,96901.88
2018-07-02T21:17:07.404Z,96905.22
2018-07-02T21:19:34.550Z,96907.17
2018-07-02T21:22:01.680Z,96910.93
2018-07-02T21:24:28.797Z,96911.14
2018-07-02T21:26:55.947Z,96914.75
2018-07-02T21:29:23.157Z,96917.77
2018-07-02T21:31:50.389Z,96923.27
2018-07-02T21:34:17.518Z,96919.98
2018-07-02T21:36:44.680Z,96919.98
2018-07-02T21:39:13.033Z,96928.05
2018-07-02T21:41:40.775Z,96926.88
2018-07-02T21:44:07.932Z,96929.34
2018-07-02T21:46:35.080Z,96934.66
2018-07-02T21:49:02.285Z,96926.95
2018-07-02T21:51:29.731Z,96936.23
2018-07-02T21:53:57.005Z,96931.61
2018-07-02T21:56:24.153Z,96945.56
2018-07-02T21:58:51.325Z,96936.16
2018-07-02T22:01:19.618Z,96932.62
2018-07-02T22:03:46.808Z,96931.81
2018-07-02T22:06:13.976Z,96939.92
2018-07-02T22:08:41.100Z,96941.66
2018-07-02T22:11:08.256Z,96945.00
2018-07-02T22:13:35.369Z,96940.27
2018-07-02T22:16:02.503Z,96944.59
2018-07-02T22:18:29.700Z,96947.75
2018-07-02T22:20:56.815Z,96948.41
2018-07-02T22:23:23.996Z,96948.11
2018-07-02T22:25:51.161Z,96941.88
2018-07-02T22:28:18.297Z,96941.33
2018-07-02T22:30:45.425Z,96942.42
2018-07-02T22:33:12.573Z,96939.88
2018-07-02T22:35:39.669Z,96942.81
2018-07-02T22:38:06.832Z,96946.38
2018-07-02T22:40:34.035Z,96949.34
2018-07-02T22:43:01.183Z,96942.95
2018-07-02T22:45:28.329Z,96940.48
2018-07-02T22:47:55.451Z,96944.13
2018-07-02T22:50:22.593Z,96939.05
2018-07-02T22:52:49.725Z,96945.66
2018-07-02T22:55:16.869Z,96947.77
2018-07-02T22:57:43.976Z,96957.34
2018-07-02T23:00:11.145Z,96949.38
2018-07-02T23:02:38.284Z,96952.69
2018-07-02T23:05:05.504Z,96954.80
2018-07-02T23:07:32.704Z,96954.92
2018-07-02T23:09:59.916Z,96948.09
2018-07-02T23:12:27.096Z,96956.45
2018-07-02T23:14:54.201Z,96951.06
2018-07-02T23:17:21.376Z,96949.00
2018-07-02T23:19:48.516Z,96951.36
2018-07-02T23:22:15.651Z,96955.25
2018-07-02T23:24:42.748Z,96953.84
2018-07-02T23:27:09.913Z,96949.26
2018-07-02T23:29:37.020Z,96953.63
2018-07-02T23:32:04.194Z,96951.97
2018-07-02T23:34:31.344Z,96954.19
2018-07-02T23:36:58.524Z,96961.50
2018-07-02T23:39:25.760Z,96951.33
2018-07-02T23:41:52.923Z,96960.86
2018-07-02T23:44:20.006Z,96954.09
2018-07-02T23:46:47.152Z,96951.98
2018-07-02T23:49:14.257Z,96948.98
2018-07-02T23:51:41.439Z,96943.41
2018-07-02T23:54:08.584Z,96950.00
2018-07-02T23:56:35.755Z,96956.09
2018-07-02T23:59:02.967Z,96960.09
